sensor_id;sensor_type;location;lat;lon;timestamp;temperature;humidity
43143;DHT22;28750;59.842;17.584;2023-04-25T00:00:49;2.80;99.90
43143;DHT22;28750;59.842;17.584;2023-04-25T00:03:18;2.80;99.90
43143;DHT22;28750;59.842;17.584;2023-04-25T00:05:45;2.90;99.90
43143;DHT22;28750;59.842;17.584;2023-04-25T00:08:13;2.70;99.90
43143;DHT22;28750;59.842;17.584;2023-04-25T00:10:40;2.80;99.90
43143;DHT22;28750;59.842;17.584;2023-04-25T00:13:07;2.70;99.90
43143;DHT22;28750;59.842;17.584;2023-04-25T00:15:34;2.70;99.90
43143;DHT22;28750;59.842;17.584;2023-04-25T00:18:01;2.70;99.90
43143;DHT22;28750;59.842;17.584;2023-04-25T00:20:28;2.80;99.90
43143;DHT22;28750;59.842;17.584;2023-04-25T00:22:56;2.80;99.90
43143;DHT22;28750;59.842;17.584;2023-04-25T00:25:23;2.80;99.90
43143;DHT22;28750;59.842;17.584;2023-04-25T00:27:50;2.80;99.90
43143;DHT22;28750;59.842;17.584;2023-04-25T00:30:17;2.70;99.90
43143;DHT22;28750;59.842;17.584;2023-04-25T00:32:44;2.70;99.90
43143;DHT22;28750;59.842;17.584;2023-04-25T00:35:11;2.70;99.90
43143;DHT22;28750;59.842;17.584;2023-04-25T00:37:38;2.80;99.90
43143;DHT22;28750;59.842;17.584;2023-04-25T00:40:06;2.80;99.90
43143;DHT22;28750;59.842;17.584;2023-04-25T00:42:34;2.80;99.90
43143;DHT22;28750;59.842;17.584;2023-04-25T00:45:05;2.80;99.90
43143;DHT22;28750;59.842;17.584;2023-04-25T00:47:33;2.80;99.90
43143;DHT22;28750;59.842;17.584;2023-04-25T00:50:00;2.80;99.90
43143;DHT22;28750;59.842;17.584;2023-04-25T00:52:27;2.70;99.90
43143;DHT22;28750;59.842;17.584;2023-04-25T00:54:54;2.80;99.90
43143;DHT22;28750;59.842;17.584;2023-04-25T00:57:21;2.70;99.90
43143;DHT22;28750;59.842;17.584;2023-04-25T00:59:50;2.70;99.90
43143;DHT22;28750;59.842;17.584;2023-04-25T01:02:18;2.70;99.90
43143;DHT22;28750;59.842;17.584;2023-04-25T01:04:46;2.60;99.90
43143;DHT22;28750;59.842;17.584;2023-04-25T01:07:14;2.60;99.90
43143;DHT22;28750;59.842;17.584;2023-04-25T01:09:41;2.60;99.90
43143;DHT22;28750;59.842;17.584;2023-04-25T01:12:09;2.60;99.90
43143;DHT22;28750;59.842;17.584;2023-04-25T01:14:36;2.60;99.90
43143;DHT22;28750;59.842;17.584;2023-04-25T01:17:03;2.60;99.90
43143;DHT22;28750;59.842;17.584;2023-04-25T01:19:30;2.60;99.90
43143;DHT22;28750;59.842;17.584;2023-04-25T01:21:57;2.60;99.90
43143;DHT22;28750;59.842;17.584;2023-04-25T01:24:24;2.70;99.90
43143;DHT22;28750;59.842;17.584;2023-04-25T01:26:51;2.60;99.90
43143;DHT22;28750;59.842;17.584;2023-04-25T01:29:20;2.60;99.90
43143;DHT22;28750;59.842;17.584;2023-04-25T01:31:47;2.60;99.90
43143;DHT22;28750;59.842;17.584;2023-04-25T01:34:14;2.70;99.90
43143;DHT22;28750;59.842;17.584;2023-04-25T01:36:41;2.60;99.90
43143;DHT22;28750;59.842;17.584;2023-04-25T01:39:09;2.60;99.90
43143;DHT22;28750;59.842;17.584;2023-04-25T01:41:36;2.60;99.90
43143;DHT22;28750;59.842;17.584;2023-04-25T01:44:04;2.70;99.90
43143;DHT22;28750;59.842;17.584;2023-04-25T01:46:32;2.70;99.90
43143;DHT22;28750;59.842;17.584;2023-04-25T01:49:00;2.70;99.90
43143;DHT22;28750;59.842;17.584;2023-04-25T01:51:28;2.60;99.90
43143;DHT22;28750;59.842;17.584;2023-04-25T01:53:55;2.60;99.90
43143;DHT22;28750;59.842;17.584;2023-04-25T01:56:23;2.60;99.90
43143;DHT22;28750;59.842;17.584;2023-04-25T01:58:51;2.60;99.90
43143;DHT22;28750;59.842;17.584;2023-04-25T02:01:18;2.60;99.90
43143;DHT22;28750;59.842;17.584;2023-04-25T02:03:45;2.60;99.90
43143;DHT22;28750;59.842;17.584;2023-04-25T02:06:12;2.60;99.90
43143;DHT22;28750;59.842;17.584;2023-04-25T02:08:39;2.60;99.90
43143;DHT22;28750;59.842;17.584;2023-04-25T02:11:06;2.60;99.90
43143;DHT22;28750;59.842;17.584;2023-04-25T02:13:33;2.60;99.90
43143;DHT22;28750;59.842;17.584;2023-04-25T02:16:00;2.50;99.90
43143;DHT22;28750;59.842;17.584;2023-04-25T02:18:27;2.50;99.90
43143;DHT22;28750;59.842;17.584;2023-04-25T02:20:55;2.60;99.90
43143;DHT22;28750;59.842;17.584;2023-04-25T02:23:22;2.70;99.90
43143;DHT22;28750;59.842;17.584;2023-04-25T02:25:49;2.60;99.90
43143;DHT22;28750;59.842;17.584;2023-04-25T02:28:16;2.50;99.90
43143;DHT22;28750;59.842;17.584;2023-04-25T02:30:43;2.50;99.90
43143;DHT22;28750;59.842;17.584;2023-04-25T02:33:10;2.50;99.90
43143;DHT22;28750;59.842;17.584;2023-04-25T02:35:37;2.50;99.90
43143;DHT22;28750;59.842;17.584;2023-04-25T02:38:04;2.60;99.90
43143;DHT22;28750;59.842;17.584;2023-04-25T02:40:31;2.50;99.90
43143;DHT22;28750;59.842;17.584;2023-04-25T02:42:58;2.50;99.90
43143;DHT22;28750;59.842;17.584;2023-04-25T02:45:25;2.60;99.90
43143;DHT22;28750;59.842;17.584;2023-04-25T02:47:52;2.50;99.90
43143;DHT22;28750;59.842;17.584;2023-04-25T02:50:19;2.60;99.90
43143;DHT22;28750;59.842;17.584;2023-04-25T02:52:46;2.50;99.90
43143;DHT22;28750;59.842;17.584;2023-04-25T02:55:14;2.60;99.90
43143;DHT22;28750;59.842;17.584;2023-04-25T02:57:41;2.60;99.90
43143;DHT22;28750;59.842;17.584;2023-04-25T03:00:08;2.60;99.90
43143;DHT22;28750;59.842;17.584;2023-04-25T03:02:37;2.60;99.90
43143;DHT22;28750;59.842;17.584;2023-04-25T03:05:04;2.60;99.90
43143;DHT22;28750;59.842;17.584;2023-04-25T03:07:31;2.60;99.90
43143;DHT22;28750;59.842;17.584;2023-04-25T03:09:58;2.50;99.90
43143;DHT22;28750;59.842;17.584;2023-04-25T03:12:25;2.50;99.90
43143;DHT22;28750;59.842;17.584;2023-04-25T03:14:52;2.50;99.90
43143;DHT22;28750;59.842;17.584;2023-04-25T03:17:19;2.50;99.90
43143;DHT22;28750;59.842;17.584;2023-04-25T03:19:46;2.50;99.90
43143;DHT22;28750;59.842;17.584;2023-04-25T03:22:13;2.50;99.90
43143;DHT22;28750;59.842;17.584;2023-04-25T03:24:40;2.50;99.90
43143;DHT22;28750;59.842;17.584;2023-04-25T03:27:07;2.50;99.90
43143;DHT22;28750;59.842;17.584;2023-04-25T03:29:34;2.50;99.90
43143;DHT22;28750;59.842;17.584;2023-04-25T03:32:01;2.50;99.90
43143;DHT22;28750;59.842;17.584;2023-04-25T03:34:28;2.50;99.90
43143;DHT22;28750;59.842;17.584;2023-04-25T03:36:55;2.50;99.90
43143;DHT22;28750;59.842;17.584;2023-04-25T03:39:22;2.60;99.90
43143;DHT22;28750;59.842;17.584;2023-04-25T03:41:49;2.50;99.90
43143;DHT22;28750;59.842;17.584;2023-04-25T03:44:16;2.60;99.90
43143;DHT22;28750;59.842;17.584;2023-04-25T03:46:43;2.50;99.90
43143;DHT22;28750;59.842;17.584;2023-04-25T03:49:10;2.60;99.90
43143;DHT22;28750;59.842;17.584;2023-04-25T03:51:37;2.60;99.90
43143;DHT22;28750;59.842;17.584;2023-04-25T03:54:04;2.60;99.90
43143;DHT22;28750;59.842;17.584;2023-04-25T03:56:31;2.60;99.90
43143;DHT22;28750;59.842;17.584;2023-04-25T03:58:58;2.70;99.90
43143;DHT22;28750;59.842;17.584;2023-04-25T04:01:25;2.80;99.90
43143;DHT22;28750;59.842;17.584;2023-04-25T04:03:52;2.70;99.90
43143;DHT22;28750;59.842;17.584;2023-04-25T04:06:19;2.80;99.90
43143;DHT22;28750;59.842;17.584;2023-04-25T04:08:46;2.80;99.90
43143;DHT22;28750;59.842;17.584;2023-04-25T04:11:13;2.80;99.90
43143;DHT22;28750;59.842;17.584;2023-04-25T04:13:40;2.70;99.90
43143;DHT22;28750;59.842;17.584;2023-04-25T04:16:08;2.70;99.90
43143;DHT22;28750;59.842;17.584;2023-04-25T04:18:35;2.70;99.90
43143;DHT22;28750;59.842;17.584;2023-04-25T04:21:02;2.70;99.90
43143;DHT22;28750;59.842;17.584;2023-04-25T04:23:29;2.80;99.90
43143;DHT22;28750;59.842;17.584;2023-04-25T04:25:56;2.70;99.90
43143;DHT22;28750;59.842;17.584;2023-04-25T04:28:23;2.80;99.90
43143;DHT22;28750;59.842;17.584;2023-04-25T04:30:50;2.70;99.90
43143;DHT22;28750;59.842;17.584;2023-04-25T04:33:18;2.70;99.90
43143;DHT22;28750;59.842;17.584;2023-04-25T04:35:46;2.70;99.90
43143;DHT22;28750;59.842;17.584;2023-04-25T04:38:14;2.80;99.90
43143;DHT22;28750;59.842;17.584;2023-04-25T04:40:41;2.70;99.90
43143;DHT22;28750;59.842;17.584;2023-04-25T04:43:09;2.70;99.90
43143;DHT22;28750;59.842;17.584;2023-04-25T04:45:37;2.70;99.90
43143;DHT22;28750;59.842;17.584;2023-04-25T04:48:06;2.70;99.90
43143;DHT22;28750;59.842;17.584;2023-04-25T04:50:34;2.70;99.90
43143;DHT22;28750;59.842;17.584;2023-04-25T04:53:02;2.70;99.90
43143;DHT22;28750;59.842;17.584;2023-04-25T04:55:29;2.70;99.90
43143;DHT22;28750;59.842;17.584;2023-04-25T04:57:56;2.70;99.90
43143;DHT22;28750;59.842;17.584;2023-04-25T05:00:23;2.80;99.90
43143;DHT22;28750;59.842;17.584;2023-04-25T05:02:50;2.90;99.90
43143;DHT22;28750;59.842;17.584;2023-04-25T05:05:17;2.80;99.90
43143;DHT22;28750;59.842;17.584;2023-04-25T05:07:44;2.70;99.90
43143;DHT22;28750;59.842;17.584;2023-04-25T05:10:11;2.70;99.90
43143;DHT22;28750;59.842;17.584;2023-04-25T05:12:38;2.80;99.90
43143;DHT22;28750;59.842;17.584;2023-04-25T05:15:05;2.90;99.90
43143;DHT22;28750;59.842;17.584;2023-04-25T05:17:32;2.90;99.90
43143;DHT22;28750;59.842;17.584;2023-04-25T05:19:59;2.90;99.90
43143;DHT22;28750;59.842;17.584;2023-04-25T05:22:27;2.90;99.90
43143;DHT22;28750;59.842;17.584;2023-04-25T05:24:53;2.90;99.90
43143;DHT22;28750;59.842;17.584;2023-04-25T05:27:20;2.80;99.90
43143;DHT22;28750;59.842;17.584;2023-04-25T05:29:47;2.90;99.90
43143;DHT22;28750;59.842;17.584;2023-04-25T05:32:14;3.00;99.90
43143;DHT22;28750;59.842;17.584;2023-04-25T05:34:41;3.10;99.90
43143;DHT22;28750;59.842;17.584;2023-04-25T05:37:08;3.20;99.90
43143;DHT22;28750;59.842;17.584;2023-04-25T05:39:35;3.20;99.90
43143;DHT22;28750;59.842;17.584;2023-04-25T05:42:02;3.10;99.90
43143;DHT22;28750;59.842;17.584;2023-04-25T05:44:30;3.10;99.90
43143;DHT22;28750;59.842;17.584;2023-04-25T05:46:57;3.20;99.90
43143;DHT22;28750;59.842;17.584;2023-04-25T05:49:24;3.20;99.90
43143;DHT22;28750;59.842;17.584;2023-04-25T05:51:51;3.20;99.90
43143;DHT22;28750;59.842;17.584;2023-04-25T05:54:19;3.30;99.90
43143;DHT22;28750;59.842;17.584;2023-04-25T05:56:46;3.20;99.90
43143;DHT22;28750;59.842;17.584;2023-04-25T05:59:13;3.20;99.90
43143;DHT22;28750;59.842;17.584;2023-04-25T06:01:40;3.30;99.90
43143;DHT22;28750;59.842;17.584;2023-04-25T06:04:07;3.40;99.90
43143;DHT22;28750;59.842;17.584;2023-04-25T06:06:34;3.40;99.90
43143;DHT22;28750;59.842;17.584;2023-04-25T06:09:01;3.40;99.90
43143;DHT22;28750;59.842;17.584;2023-04-25T06:11:28;3.40;99.90
43143;DHT22;28750;59.842;17.584;2023-04-25T06:13:55;3.40;99.90
43143;DHT22;28750;59.842;17.584;2023-04-25T06:16:22;3.40;99.90
43143;DHT22;28750;59.842;17.584;2023-04-25T06:18:51;3.30;99.90
43143;DHT22;28750;59.842;17.584;2023-04-25T06:21:18;3.40;99.90
43143;DHT22;28750;59.842;17.584;2023-04-25T06:23:45;3.30;99.90
43143;DHT22;28750;59.842;17.584;2023-04-25T06:26:12;3.40;99.90
43143;DHT22;28750;59.842;17.584;2023-04-25T06:28:39;3.30;99.90
43143;DHT22;28750;59.842;17.584;2023-04-25T06:31:06;3.40;99.90
43143;DHT22;28750;59.842;17.584;2023-04-25T06:33:33;3.50;99.90
43143;DHT22;28750;59.842;17.584;2023-04-25T06:36:00;3.40;99.90
43143;DHT22;28750;59.842;17.584;2023-04-25T06:38:27;3.60;99.90
43143;DHT22;28750;59.842;17.584;2023-04-25T06:40:54;3.50;99.90
43143;DHT22;28750;59.842;17.584;2023-04-25T06:43:21;3.50;99.90
43143;DHT22;28750;59.842;17.584;2023-04-25T06:45:49;3.50;99.90
43143;DHT22;28750;59.842;17.584;2023-04-25T06:48:15;3.50;99.90
43143;DHT22;28750;59.842;17.584;2023-04-25T06:50:42;3.50;99.90
43143;DHT22;28750;59.842;17.584;2023-04-25T06:53:09;3.50;99.90
43143;DHT22;28750;59.842;17.584;2023-04-25T06:55:37;3.60;99.90
43143;DHT22;28750;59.842;17.584;2023-04-25T06:58:04;3.50;99.90
43143;DHT22;28750;59.842;17.584;2023-04-25T07:00:30;3.60;99.90
43143;DHT22;28750;59.842;17.584;2023-04-25T07:02:59;3.50;99.90
43143;DHT22;28750;59.842;17.584;2023-04-25T07:05:26;3.50;99.90
43143;DHT22;28750;59.842;17.584;2023-04-25T07:07:53;3.60;99.90
43143;DHT22;28750;59.842;17.584;2023-04-25T07:10:20;3.60;99.90
43143;DHT22;28750;59.842;17.584;2023-04-25T07:12:47;3.50;99.90
43143;DHT22;28750;59.842;17.584;2023-04-25T07:15:14;3.60;99.90
43143;DHT22;28750;59.842;17.584;2023-04-25T07:17:41;3.70;99.90
43143;DHT22;28750;59.842;17.584;2023-04-25T07:20:08;3.70;99.90
43143;DHT22;28750;59.842;17.584;2023-04-25T07:22:36;3.70;99.90
43143;DHT22;28750;59.842;17.584;2023-04-25T07:25:03;3.80;99.90
43143;DHT22;28750;59.842;17.584;2023-04-25T07:27:31;3.80;99.90
43143;DHT22;28750;59.842;17.584;2023-04-25T07:29:58;3.90;99.90
43143;DHT22;28750;59.842;17.584;2023-04-25T07:32:25;3.80;99.90
43143;DHT22;28750;59.842;17.584;2023-04-25T07:34:53;3.80;99.90
43143;DHT22;28750;59.842;17.584;2023-04-25T07:37:20;3.80;99.90
43143;DHT22;28750;59.842;17.584;2023-04-25T07:39:47;4.00;99.90
43143;DHT22;28750;59.842;17.584;2023-04-25T07:42:14;4.10;99.90
43143;DHT22;28750;59.842;17.584;2023-04-25T07:44:41;4.20;99.90
43143;DHT22;28750;59.842;17.584;2023-04-25T07:47:09;4.20;99.90
43143;DHT22;28750;59.842;17.584;2023-04-25T07:49:36;4.10;99.90
43143;DHT22;28750;59.842;17.584;2023-04-25T07:52:04;4.20;99.90
43143;DHT22;28750;59.842;17.584;2023-04-25T07:54:31;4.30;99.90
43143;DHT22;28750;59.842;17.584;2023-04-25T07:56:59;4.30;99.90
43143;DHT22;28750;59.842;17.584;2023-04-25T07:59:25;4.40;99.90
43143;DHT22;28750;59.842;17.584;2023-04-25T08:01:52;4.20;99.90
43143;DHT22;28750;59.842;17.584;2023-04-25T08:04:19;4.30;99.90
43143;DHT22;28750;59.842;17.584;2023-04-25T08:06:46;4.50;99.90
43143;DHT22;28750;59.842;17.584;2023-04-25T08:09:14;4.50;99.90
43143;DHT22;28750;59.842;17.584;2023-04-25T08:11:41;4.60;99.90
43143;DHT22;28750;59.842;17.584;2023-04-25T08:14:08;4.50;99.90
43143;DHT22;28750;59.842;17.584;2023-04-25T08:16:35;4.50;99.90
43143;DHT22;28750;59.842;17.584;2023-04-25T08:19:02;4.50;99.90
43143;DHT22;28750;59.842;17.584;2023-04-25T08:21:30;4.60;99.90
43143;DHT22;28750;59.842;17.584;2023-04-25T08:23:58;4.70;99.90
43143;DHT22;28750;59.842;17.584;2023-04-25T08:26:25;4.70;99.90
43143;DHT22;28750;59.842;17.584;2023-04-25T08:28:52;4.70;99.90
43143;DHT22;28750;59.842;17.584;2023-04-25T08:31:19;4.80;99.90
43143;DHT22;28750;59.842;17.584;2023-04-25T08:33:46;4.80;99.90
43143;DHT22;28750;59.842;17.584;2023-04-25T08:36:13;5.00;99.90
43143;DHT22;28750;59.842;17.584;2023-04-25T08:38:40;5.10;99.90
43143;DHT22;28750;59.842;17.584;2023-04-25T08:41:07;5.00;99.90
43143;DHT22;28750;59.842;17.584;2023-04-25T08:43:34;5.10;99.90
43143;DHT22;28750;59.842;17.584;2023-04-25T08:46:02;5.10;99.90
43143;DHT22;28750;59.842;17.584;2023-04-25T08:48:32;5.10;99.90
43143;DHT22;28750;59.842;17.584;2023-04-25T08:51:01;5.30;99.90
43143;DHT22;28750;59.842;17.584;2023-04-25T08:53:32;5.30;99.90
43143;DHT22;28750;59.842;17.584;2023-04-25T08:56:01;5.30;99.90
43143;DHT22;28750;59.842;17.584;2023-04-25T08:58:29;5.20;99.90
43143;DHT22;28750;59.842;17.584;2023-04-25T09:00:56;5.30;99.90
43143;DHT22;28750;59.842;17.584;2023-04-25T09:03:23;5.30;99.90
43143;DHT22;28750;59.842;17.584;2023-04-25T09:05:51;5.40;99.90
43143;DHT22;28750;59.842;17.584;2023-04-25T09:08:18;5.50;99.90
43143;DHT22;28750;59.842;17.584;2023-04-25T09:10:45;5.50;99.90
43143;DHT22;28750;59.842;17.584;2023-04-25T09:13:14;5.30;99.90
43143;DHT22;28750;59.842;17.584;2023-04-25T09:15:52;5.30;99.90
43143;DHT22;28750;59.842;17.584;2023-04-25T09:18:23;5.40;99.90
43143;DHT22;28750;59.842;17.584;2023-04-25T09:20:56;5.40;99.90
43143;DHT22;28750;59.842;17.584;2023-04-25T09:23:23;5.60;99.90
43143;DHT22;28750;59.842;17.584;2023-04-25T09:25:52;5.70;99.90
43143;DHT22;28750;59.842;17.584;2023-04-25T09:28:24;5.80;99.90
43143;DHT22;28750;59.842;17.584;2023-04-25T09:30:57;5.90;99.90
43143;DHT22;28750;59.842;17.584;2023-04-25T09:33:32;6.00;99.90
43143;DHT22;28750;59.842;17.584;2023-04-25T09:36:10;6.10;99.90
43143;DHT22;28750;59.842;17.584;2023-04-25T09:38:43;6.00;99.90
43143;DHT22;28750;59.842;17.584;2023-04-25T09:41:11;5.90;99.90
43143;DHT22;28750;59.842;17.584;2023-04-25T09:43:39;6.00;99.90
43143;DHT22;28750;59.842;17.584;2023-04-25T09:46:10;6.00;99.90
43143;DHT22;28750;59.842;17.584;2023-04-25T09:48:37;6.00;99.90
43143;DHT22;28750;59.842;17.584;2023-04-25T09:53:38;6.40;99.90
43143;DHT22;28750;59.842;17.584;2023-04-25T09:56:08;6.40;99.90
43143;DHT22;28750;59.842;17.584;2023-04-25T09:58:37;6.50;99.90
43143;DHT22;28750;59.842;17.584;2023-04-25T10:01:07;6.40;99.90
43143;DHT22;28750;59.842;17.584;2023-04-25T10:03:36;6.60;99.90
43143;DHT22;28750;59.842;17.584;2023-04-25T10:06:11;6.50;99.90
43143;DHT22;28750;59.842;17.584;2023-04-25T10:08:38;6.50;99.90
43143;DHT22;28750;59.842;17.584;2023-04-25T10:11:07;6.50;99.90
43143;DHT22;28750;59.842;17.584;2023-04-25T10:13:36;6.80;99.90
43143;DHT22;28750;59.842;17.584;2023-04-25T10:16:04;7.00;99.90
43143;DHT22;28750;59.842;17.584;2023-04-25T10:18:32;6.90;99.90
43143;DHT22;28750;59.842;17.584;2023-04-25T10:21:04;6.80;99.90
43143;DHT22;28750;59.842;17.584;2023-04-25T10:23:32;6.90;99.90
43143;DHT22;28750;59.842;17.584;2023-04-25T10:26:00;6.80;99.90
43143;DHT22;28750;59.842;17.584;2023-04-25T10:28:27;6.80;99.90
43143;DHT22;28750;59.842;17.584;2023-04-25T10:31:02;7.00;99.90
43143;DHT22;28750;59.842;17.584;2023-04-25T10:33:35;7.00;99.90
43143;DHT22;28750;59.842;17.584;2023-04-25T10:36:14;7.10;99.90
43143;DHT22;28750;59.842;17.584;2023-04-25T10:38:45;7.00;99.90
43143;DHT22;28750;59.842;17.584;2023-04-25T10:41:12;7.00;99.90
43143;DHT22;28750;59.842;17.584;2023-04-25T10:43:41;6.90;99.90
43143;DHT22;28750;59.842;17.584;2023-04-25T10:46:28;7.10;99.90
43143;DHT22;28750;59.842;17.584;2023-04-25T10:49:00;7.00;99.90
43143;DHT22;28750;59.842;17.584;2023-04-25T10:51:32;6.90;99.90
43143;DHT22;28750;59.842;17.584;2023-04-25T10:54:07;7.10;99.90
43143;DHT22;28750;59.842;17.584;2023-04-25T10:56:39;7.00;99.90
43143;DHT22;28750;59.842;17.584;2023-04-25T10:59:18;7.10;99.90
43143;DHT22;28750;59.842;17.584;2023-04-25T11:01:51;7.10;99.90
43143;DHT22;28750;59.842;17.584;2023-04-25T11:04:24;7.00;99.90
43143;DHT22;28750;59.842;17.584;2023-04-25T11:09:25;7.20;99.90
43143;DHT22;28750;59.842;17.584;2023-04-25T11:11:58;7.10;99.90
43143;DHT22;28750;59.842;17.584;2023-04-25T11:14:25;7.10;99.90
43143;DHT22;28750;59.842;17.584;2023-04-25T11:16:57;7.20;99.90
43143;DHT22;28750;59.842;17.584;2023-04-25T11:19:25;7.50;99.90
43143;DHT22;28750;59.842;17.584;2023-04-25T11:21:56;7.30;99.90
43143;DHT22;28750;59.842;17.584;2023-04-25T11:24:30;7.30;99.90
43143;DHT22;28750;59.842;17.584;2023-04-25T11:27:01;7.50;99.90
43143;DHT22;28750;59.842;17.584;2023-04-25T11:29:33;7.40;99.90
43143;DHT22;28750;59.842;17.584;2023-04-25T11:32:01;7.60;99.90
43143;DHT22;28750;59.842;17.584;2023-04-25T11:34:29;7.90;99.90
43143;DHT22;28750;59.842;17.584;2023-04-25T11:36:58;7.70;99.90
43143;DHT22;28750;59.842;17.584;2023-04-25T11:39:26;7.60;99.90
43143;DHT22;28750;59.842;17.584;2023-04-25T11:41:54;7.80;99.90
43143;DHT22;28750;59.842;17.584;2023-04-25T11:44:22;8.20;99.90
43143;DHT22;28750;59.842;17.584;2023-04-25T11:46:49;8.30;99.90
43143;DHT22;28750;59.842;17.584;2023-04-25T11:49:16;8.10;99.90
43143;DHT22;28750;59.842;17.584;2023-04-25T11:51:47;8.10;99.90
43143;DHT22;28750;59.842;17.584;2023-04-25T11:54:14;8.10;99.90
43143;DHT22;28750;59.842;17.584;2023-04-25T11:56:43;8.30;99.90
43143;DHT22;28750;59.842;17.584;2023-04-25T11:59:10;8.10;99.90
43143;DHT22;28750;59.842;17.584;2023-04-25T12:01:39;8.10;99.90
43143;DHT22;28750;59.842;17.584;2023-04-25T12:04:33;8.20;99.90
43143;DHT22;28750;59.842;17.584;2023-04-25T12:07:00;8.00;99.90
43143;DHT22;28750;59.842;17.584;2023-04-25T12:09:30;8.40;99.90
43143;DHT22;28750;59.842;17.584;2023-04-25T12:11:59;8.50;99.90
43143;DHT22;28750;59.842;17.584;2023-04-25T12:14:34;8.30;99.90
43143;DHT22;28750;59.842;17.584;2023-04-25T12:17:03;8.30;99.90
43143;DHT22;28750;59.842;17.584;2023-04-25T12:19:37;8.50;99.90
43143;DHT22;28750;59.842;17.584;2023-04-25T12:22:22;8.60;99.90
43143;DHT22;28750;59.842;17.584;2023-04-25T12:24:50;8.30;90.50
43143;DHT22;28750;59.842;17.584;2023-04-25T12:27:18;8.30;99.90
43143;DHT22;28750;59.842;17.584;2023-04-25T12:29:56;8.20;99.90
43143;DHT22;28750;59.842;17.584;2023-04-25T12:32:24;8.40;99.90
43143;DHT22;28750;59.842;17.584;2023-04-25T12:34:51;8.60;99.90
43143;DHT22;28750;59.842;17.584;2023-04-25T12:37:18;8.40;1.00
43143;DHT22;28750;59.842;17.584;2023-04-25T12:39:45;8.20;99.90
43143;DHT22;28750;59.842;17.584;2023-04-25T12:42:12;7.80;99.90
43143;DHT22;28750;59.842;17.584;2023-04-25T12:44:40;7.60;99.90
43143;DHT22;28750;59.842;17.584;2023-04-25T12:47:07;7.90;99.90
43143;DHT22;28750;59.842;17.584;2023-04-25T12:49:34;7.90;99.90
43143;DHT22;28750;59.842;17.584;2023-04-25T12:52:00;8.00;99.90
43143;DHT22;28750;59.842;17.584;2023-04-25T12:54:27;7.70;99.90
43143;DHT22;28750;59.842;17.584;2023-04-25T12:56:55;7.70;99.90
43143;DHT22;28750;59.842;17.584;2023-04-25T12:59:21;7.60;99.90
43143;DHT22;28750;59.842;17.584;2023-04-25T13:01:48;7.70;99.90
43143;DHT22;28750;59.842;17.584;2023-04-25T13:04:19;7.70;99.90
43143;DHT22;28750;59.842;17.584;2023-04-25T13:06:49;7.70;99.90
43143;DHT22;28750;59.842;17.584;2023-04-25T13:09:24;7.60;99.90
43143;DHT22;28750;59.842;17.584;2023-04-25T13:11:52;7.80;99.90
43143;DHT22;28750;59.842;17.584;2023-04-25T13:14:20;7.60;99.90
43143;DHT22;28750;59.842;17.584;2023-04-25T13:16:48;7.60;99.90
43143;DHT22;28750;59.842;17.584;2023-04-25T13:19:15;7.60;99.90
43143;DHT22;28750;59.842;17.584;2023-04-25T13:21:42;7.40;99.90
43143;DHT22;28750;59.842;17.584;2023-04-25T13:24:09;7.50;99.90
43143;DHT22;28750;59.842;17.584;2023-04-25T13:26:36;7.60;99.90
43143;DHT22;28750;59.842;17.584;2023-04-25T13:29:03;7.50;99.90
43143;DHT22;28750;59.842;17.584;2023-04-25T13:31:31;7.40;99.90
43143;DHT22;28750;59.842;17.584;2023-04-25T13:33:58;7.60;99.90
43143;DHT22;28750;59.842;17.584;2023-04-25T13:36:25;7.50;99.90
43143;DHT22;28750;59.842;17.584;2023-04-25T13:38:53;7.50;99.90
43143;DHT22;28750;59.842;17.584;2023-04-25T13:41:20;7.50;99.90
43143;DHT22;28750;59.842;17.584;2023-04-25T13:43:47;7.50;99.90
43143;DHT22;28750;59.842;17.584;2023-04-25T13:46:14;7.60;99.90
43143;DHT22;28750;59.842;17.584;2023-04-25T13:48:42;7.70;99.90
43143;DHT22;28750;59.842;17.584;2023-04-25T13:51:13;7.70;99.90
43143;DHT22;28750;59.842;17.584;2023-04-25T13:53:40;7.70;99.90
43143;DHT22;28750;59.842;17.584;2023-04-25T13:56:07;7.80;99.90
43143;DHT22;28750;59.842;17.584;2023-04-25T13:58:34;7.70;99.90
43143;DHT22;28750;59.842;17.584;2023-04-25T14:01:01;7.80;99.90
43143;DHT22;28750;59.842;17.584;2023-04-25T14:03:30;7.80;99.90
43143;DHT22;28750;59.842;17.584;2023-04-25T14:05:57;7.90;99.90
43143;DHT22;28750;59.842;17.584;2023-04-25T14:08:24;8.00;99.90
43143;DHT22;28750;59.842;17.584;2023-04-25T14:10:51;8.10;99.90
43143;DHT22;28750;59.842;17.584;2023-04-25T14:13:18;8.10;99.90
43143;DHT22;28750;59.842;17.584;2023-04-25T14:15:45;8.20;99.90
43143;DHT22;28750;59.842;17.584;2023-04-25T14:18:12;8.20;99.90
43143;DHT22;28750;59.842;17.584;2023-04-25T14:20:39;8.30;99.90
43143;DHT22;28750;59.842;17.584;2023-04-25T14:23:06;8.20;99.90
43143;DHT22;28750;59.842;17.584;2023-04-25T14:25:33;8.00;99.90
43143;DHT22;28750;59.842;17.584;2023-04-25T14:28:01;8.00;99.90
43143;DHT22;28750;59.842;17.584;2023-04-25T14:30:28;8.10;99.90
43143;DHT22;28750;59.842;17.584;2023-04-25T14:32:55;8.00;99.90
43143;DHT22;28750;59.842;17.584;2023-04-25T14:35:22;8.10;99.90
43143;DHT22;28750;59.842;17.584;2023-04-25T14:37:49;8.10;99.90
43143;DHT22;28750;59.842;17.584;2023-04-25T14:40:16;8.20;99.90
43143;DHT22;28750;59.842;17.584;2023-04-25T14:42:43;8.20;99.90
43143;DHT22;28750;59.842;17.584;2023-04-25T14:45:11;8.10;99.90
43143;DHT22;28750;59.842;17.584;2023-04-25T14:47:38;8.20;99.90
43143;DHT22;28750;59.842;17.584;2023-04-25T14:50:06;8.00;99.90
43143;DHT22;28750;59.842;17.584;2023-04-25T14:52:34;7.90;99.90
43143;DHT22;28750;59.842;17.584;2023-04-25T14:55:01;8.10;99.90
43143;DHT22;28750;59.842;17.584;2023-04-25T14:57:34;8.20;99.90
43143;DHT22;28750;59.842;17.584;2023-04-25T15:00:02;8.20;99.90
43143;DHT22;28750;59.842;17.584;2023-04-25T15:02:30;8.20;99.90
43143;DHT22;28750;59.842;17.584;2023-04-25T15:04:57;8.10;99.90
43143;DHT22;28750;59.842;17.584;2023-04-25T15:07:25;8.20;99.90
43143;DHT22;28750;59.842;17.584;2023-04-25T15:09:52;8.20;99.90
43143;DHT22;28750;59.842;17.584;2023-04-25T15:12:21;8.20;99.90
43143;DHT22;28750;59.842;17.584;2023-04-25T15:14:48;8.10;99.90
43143;DHT22;28750;59.842;17.584;2023-04-25T15:17:15;8.10;99.90
43143;DHT22;28750;59.842;17.584;2023-04-25T15:19:42;8.00;99.90
43143;DHT22;28750;59.842;17.584;2023-04-25T15:22:14;7.90;99.90
43143;DHT22;28750;59.842;17.584;2023-04-25T15:24:42;7.90;99.90
43143;DHT22;28750;59.842;17.584;2023-04-25T15:27:09;8.00;99.90
43143;DHT22;28750;59.842;17.584;2023-04-25T15:29:36;8.00;99.90
43143;DHT22;28750;59.842;17.584;2023-04-25T15:32:03;8.10;99.90
43143;DHT22;28750;59.842;17.584;2023-04-25T15:34:30;8.10;99.90
43143;DHT22;28750;59.842;17.584;2023-04-25T15:36:57;8.00;99.90
43143;DHT22;28750;59.842;17.584;2023-04-25T15:39:24;8.00;99.90